createdAt,value
2022-08-27T00:00:43.283Z,84.70
2022-08-27T00:03:10.479Z,84.60
2022-08-27T00:05:37.227Z,84.60
2022-08-27T00:08:07.802Z,84.70
2022-08-27T00:10:34.538Z,84.60
2022-08-27T00:13:01.430Z,84.60
2022-08-27T00:15:28.721Z,84.60
2022-08-27T00:17:55.819Z,84.60
2022-08-27T00:20:24.854Z,84.60
2022-08-27T00:22:52.049Z,84.50
2022-08-27T00:25:19.594Z,84.60
2022-08-27T00:27:46.488Z,84.50
2022-08-27T00:30:14.481Z,84.40
2022-08-27T00:32:42.436Z,84.50
2022-08-27T00:35:09.509Z,84.50
2022-08-27T00:37:36.638Z,84.50
2022-08-27T00:40:04.721Z,84.50
2022-08-27T00:42:31.476Z,84.60
2022-08-27T00:44:59.770Z,84.50
2022-08-27T00:47:27.658Z,84.40
2022-08-27T00:50:01.400Z,84.50
2022-08-27T00:52:29.905Z,84.50
2022-08-27T00:55:08.644Z,84.50
2022-08-27T00:57:38.898Z,84.50
2022-08-27T01:00:07.629Z,84.50
2022-08-27T01:02:34.944Z,84.60
2022-08-27T01:05:09.646Z,84.60
2022-08-27T01:07:38.049Z,84.60
2022-08-27T01:10:07.409Z,84.60
2022-08-27T01:12:34.760Z,84.70
2022-08-27T01:15:03.140Z,84.60
2022-08-27T01:17:29.849Z,84.60
2022-08-27T01:19:58.777Z,84.60
2022-08-27T01:22:43.952Z,84.60
2022-08-27T01:25:12.981Z,84.60
2022-08-27T01:27:40.323Z,84.70
2022-08-27T01:30:08.184Z,84.70
2022-08-27T01:32:35.733Z,84.70
2022-08-27T01:35:04.112Z,84.80
2022-08-27T01:37:30.845Z,84.80
2022-08-27T01:39:59.261Z,84.90
2022-08-27T01:42:35.932Z,84.90
2022-08-27T01:45:13.993Z,84.80
2022-08-27T01:47:40.756Z,84.90
2022-08-27T01:50:12.757Z,84.90
2022-08-27T01:52:39.496Z,85.00
2022-08-27T01:55:07.370Z,85.00
2022-08-27T01:57:35.356Z,85.70
2022-08-27T02:00:04.838Z,85.00
2022-08-27T02:02:32.736Z,85.00
2022-08-27T02:04:59.436Z,85.00
2022-08-27T02:07:26.176Z,85.00
2022-08-27T02:09:53.349Z,85.00
2022-08-27T02:12:20.142Z,85.10
2022-08-27T02:14:46.866Z,85.20
2022-08-27T02:17:13.585Z,85.10
2022-08-27T02:19:40.339Z,85.00
2022-08-27T02:22:07.198Z,85.10
2022-08-27T02:24:33.982Z,85.80
2022-08-27T02:27:00.779Z,85.30
2022-08-27T02:29:27.606Z,85.40
2022-08-27T02:31:54.614Z,85.20
2022-08-27T02:34:21.325Z,85.30
2022-08-27T02:36:48.301Z,85.10
2022-08-27T02:39:15.040Z,84.90
2022-08-27T02:41:41.775Z,84.70
2022-08-27T02:44:10.422Z,84.50
2022-08-27T02:46:38.851Z,84.50
2022-08-27T02:49:06.161Z,84.50
2022-08-27T02:51:32.848Z,84.40
2022-08-27T02:54:00.420Z,84.30
2022-08-27T02:56:28.775Z,84.20
2022-08-27T02:58:55.520Z,84.30
2022-08-27T03:01:22.331Z,84.40
2022-08-27T03:03:49.076Z,84.10
2022-08-27T03:06:15.853Z,84.20
2022-08-27T03:08:52.430Z,84.10
2022-08-27T03:11:22.531Z,84.10
2022-08-27T03:13:49.364Z,84.20
2022-08-27T03:16:16.306Z,84.90
2022-08-27T03:18:43.105Z,84.30
2022-08-27T03:21:15.696Z,84.20
2022-08-27T03:23:42.450Z,84.40
2022-08-27T03:26:10.922Z,84.30
2022-08-27T03:28:38.138Z,84.30
2022-08-27T03:31:06.974Z,84.30
2022-08-27T03:33:35.829Z,84.40
2022-08-27T03:36:02.753Z,84.40
2022-08-27T03:38:29.558Z,84.50
2022-08-27T03:40:56.303Z,84.40
2022-08-27T03:43:23.375Z,84.40
2022-08-27T03:46:00.582Z,84.40
2022-08-27T03:48:29.481Z,84.60
2022-08-27T03:50:56.226Z,84.40
2022-08-27T03:53:23.001Z,84.50
2022-08-27T03:55:49.804Z,84.50
2022-08-27T03:58:18.003Z,84.50
2022-08-27T04:00:44.732Z,84.50
2022-08-27T04:03:14.708Z,84.50
2022-08-27T04:05:45.270Z,84.50
2022-08-27T04:08:12.863Z,84.50
2022-08-27T04:10:40.466Z,84.60
2022-08-27T04:13:07.376Z,84.50
2022-08-27T04:15:34.289Z,84.50
2022-08-27T04:18:06.245Z,84.50
2022-08-27T04:20:35.466Z,84.50
2022-08-27T04:23:02.990Z,84.60
2022-08-27T04:25:29.716Z,84.60
2022-08-27T04:27:56.576Z,84.70
2022-08-27T04:30:23.433Z,85.00
2022-08-27T04:32:50.753Z,84.70
2022-08-27T04:35:17.573Z,84.70
2022-08-27T04:37:44.485Z,84.70
2022-08-27T04:40:11.368Z,84.80
2022-08-27T04:42:38.153Z,85.40
2022-08-27T04:45:05.319Z,84.90
2022-08-27T04:47:32.002Z,84.90
2022-08-27T04:49:59.564Z,85.00
2022-08-27T04:52:26.384Z,84.90
2022-08-27T04:54:53.539Z,84.90
2022-08-27T04:57:20.933Z,84.90
2022-08-27T04:59:48.129Z,84.90
2022-08-27T05:02:14.910Z,85.00
2022-08-27T05:04:41.742Z,84.90
2022-08-27T05:07:09.814Z,85.00
2022-08-27T05:09:36.937Z,85.10
2022-08-27T05:12:03.877Z,85.00
2022-08-27T05:14:32.344Z,85.00
2022-08-27T05:16:59.474Z,85.10
2022-08-27T05:19:26.720Z,85.10
2022-08-27T05:21:53.967Z,85.20
2022-08-27T05:24:21.218Z,85.20
2022-08-27T05:26:48.194Z,85.70
2022-08-27T05:29:15.086Z,85.20
2022-08-27T05:31:42.383Z,84.90
2022-08-27T05:34:10.494Z,85.10
2022-08-27T05:36:48.043Z,85.60
2022-08-27T05:39:16.518Z,85.10
2022-08-27T05:41:43.307Z,85.20
2022-08-27T05:46:57.333Z,85.20
2022-08-27T05:49:24.097Z,85.40
2022-08-27T05:51:50.885Z,85.20
2022-08-27T05:54:19.905Z,85.70
2022-08-27T05:56:50.043Z,86.40
2022-08-27T05:59:35.980Z,85.30
2022-08-27T06:02:03.660Z,85.40
2022-08-27T06:04:30.444Z,85.40
2022-08-27T06:06:57.398Z,85.40
2022-08-27T06:09:25.308Z,86.30
2022-08-27T06:11:55.735Z,85.50
2022-08-27T06:14:22.593Z,85.50
2022-08-27T06:16:49.521Z,85.50
2022-08-27T06:19:16.458Z,85.50
2022-08-27T06:21:43.319Z,86.20
2022-08-27T06:24:12.322Z,85.30
2022-08-27T06:26:39.421Z,85.40
2022-08-27T06:29:06.955Z,85.30
2022-08-27T06:31:35.689Z,85.30
2022-08-27T06:34:07.587Z,85.30
2022-08-27T06:36:36.915Z,85.40
2022-08-27T06:39:04.580Z,85.50
2022-08-27T06:41:31.410Z,85.60
2022-08-27T06:43:58.588Z,85.40
2022-08-27T06:46:26.691Z,85.40
2022-08-27T06:48:54.767Z,85.40
2022-08-27T06:51:24.517Z,85.40
2022-08-27T06:53:52.676Z,85.40
2022-08-27T06:56:20.133Z,85.40
2022-08-27T06:58:48.556Z,85.50
2022-08-27T07:01:19.334Z,85.50
2022-08-27T07:03:46.374Z,85.40
2022-08-27T07:06:19.640Z,85.60
2022-08-27T07:08:53.270Z,85.60
2022-08-27T07:11:20.285Z,85.50
2022-08-27T07:13:47.812Z,85.80
2022-08-27T07:16:16.338Z,85.60
2022-08-27T07:18:43.294Z,85.60
2022-08-27T07:21:10.103Z,85.60
2022-08-27T07:23:38.144Z,85.70
2022-08-27T07:26:08.738Z,85.80
2022-08-27T07:28:35.986Z,86.00
2022-08-27T07:31:02.748Z,85.90
2022-08-27T07:33:29.966Z,85.60
2022-08-27T07:35:56.901Z,86.20
2022-08-27T07:38:23.739Z,86.10
2022-08-27T07:40:52.409Z,86.10
2022-08-27T07:43:37.680Z,86.70
2022-08-27T07:46:05.629Z,86.60
2022-08-27T07:48:36.601Z,86.50
2022-08-27T07:51:05.490Z,86.30
2022-08-27T07:53:33.159Z,86.40
2022-08-27T07:56:07.102Z,86.50
2022-08-27T07:58:34.683Z,86.60
2022-08-27T08:01:01.610Z,86.70
2022-08-27T08:03:28.438Z,86.30
2022-08-27T08:05:56.020Z,86.20
2022-08-27T08:08:23.984Z,86.80
2022-08-27T08:10:50.735Z,86.90
2022-08-27T08:13:18.232Z,86.60
2022-08-27T08:15:45.701Z,86.10
2022-08-27T08:18:12.809Z,85.90
2022-08-27T08:20:57.215Z,86.10
2022-08-27T08:23:24.598Z,86.20
2022-08-27T08:25:51.321Z,86.10
2022-08-27T08:28:18.070Z,86.20
2022-08-27T08:30:44.898Z,85.90
2022-08-27T08:33:13.492Z,85.90
2022-08-27T08:35:41.422Z,86.10
2022-08-27T08:38:08.491Z,86.00
2022-08-27T08:40:43.600Z,86.00
2022-08-27T08:43:19.143Z,86.00
2022-08-27T08:45:46.020Z,86.00
2022-08-27T08:48:15.090Z,85.90
2022-08-27T08:50:44.775Z,85.80
2022-08-27T08:53:20.167Z,85.80
2022-08-27T08:55:59.158Z,85.60
2022-08-27T08:58:35.132Z,85.40
2022-08-27T09:01:03.854Z,86.20
2022-08-27T09:03:33.037Z,85.70
2022-08-27T09:06:02.478Z,85.60
2022-08-27T09:08:37.614Z,85.60
2022-08-27T09:11:25.758Z,85.50
2022-08-27T09:13:55.555Z,85.50
2022-08-27T09:16:23.180Z,85.60
2022-08-27T09:18:52.535Z,85.60
2022-08-27T09:21:42.598Z,85.80
2022-08-27T09:24:22.993Z,85.60
2022-08-27T09:26:49.735Z,85.60
2022-08-27T09:29:17.222Z,85.70
2022-08-27T09:31:44.950Z,85.80
2022-08-27T09:34:11.886Z,85.90
2022-08-27T09:36:49.551Z,86.00
2022-08-27T09:39:16.563Z,86.00
2022-08-27T09:41:45.702Z,86.60
2022-08-27T09:44:14.005Z,86.10
2022-08-27T09:46:51.585Z,86.10
2022-08-27T09:49:18.976Z,86.10
2022-08-27T09:51:46.568Z,86.20
2022-08-27T09:54:24.805Z,86.60
2022-08-27T09:56:51.601Z,86.50
2022-08-27T09:59:27.321Z,86.00
2022-08-27T10:01:59.070Z,86.30
2022-08-27T10:04:51.078Z,86.40
2022-08-27T10:07:22.059Z,86.60
2022-08-27T10:09:59.291Z,86.50
2022-08-27T10:12:35.812Z,86.40
2022-08-27T10:15:04.134Z,86.40
2022-08-27T10:17:49.578Z,86.70
2022-08-27T10:20:30.864Z,86.80
2022-08-27T10:23:16.715Z,87.20
2022-08-27T10:26:04.409Z,86.90
2022-08-27T10:28:38.987Z,86.90
2022-08-27T10:31:13.279Z,87.00
2022-08-27T10:33:40.070Z,87.20
2022-08-27T10:36:12.654Z,87.10
2022-08-27T10:38:45.001Z,87.10
2022-08-27T10:41:23.205Z,87.20
2022-08-27T10:43:56.034Z,87.50
2022-08-27T10:46:31.993Z,87.40
2022-08-27T10:49:07.621Z,87.20
2022-08-27T10:51:42.488Z,87.30
2022-08-27T10:54:09.326Z,87.90
2022-08-27T10:56:39.834Z,87.30
2022-08-27T10:59:12.751Z,87.10
2022-08-27T11:01:39.483Z,87.30
2022-08-27T11:04:08.227Z,87.20
2022-08-27T11:06:44.329Z,86.90
2022-08-27T11:09:34.729Z,87.20
2022-08-27T11:12:14.602Z,87.20
2022-08-27T11:14:41.902Z,87.40
2022-08-27T11:17:12.106Z,86.90
2022-08-27T11:19:50.664Z,86.90
2022-08-27T11:22:26.420Z,86.70
2022-08-27T11:24:59.596Z,86.50
2022-08-27T11:27:28.776Z,86.60
2022-08-27T11:30:00.241Z,88.40
2022-08-27T11:32:45.801Z,88.20
2022-08-27T11:35:16.454Z,87.50
2022-08-27T11:37:52.241Z,88.10
2022-08-27T11:40:21.840Z,87.80
2022-08-27T11:42:53.423Z,87.40
2022-08-27T11:45:20.149Z,87.70
2022-08-27T11:47:53.158Z,87.90
2022-08-27T11:50:20.823Z,89.40
2022-08-27T11:52:59.054Z,88.40
2022-08-27T11:55:28.017Z,89.40
2022-08-27T11:58:14.037Z,88.60
2022-08-27T12:00:42.262Z,88.10
2022-08-27T12:03:11.166Z,87.70
2022-08-27T12:05:37.985Z,88.10
2022-08-27T12:08:37.455Z,89.00
2022-08-27T12:11:13.111Z,88.40
2022-08-27T12:13:49.017Z,87.80
2022-08-27T12:16:18.557Z,87.30
2022-08-27T12:19:04.296Z,87.20
2022-08-27T12:21:51.698Z,87.30
2022-08-27T12:24:37.491Z,87.40
2022-08-27T12:27:36.626Z,87.30
2022-08-27T12:30:21.193Z,87.20
2022-08-27T12:32:48.758Z,87.00
2022-08-27T12:35:15.766Z,86.90
2022-08-27T12:37:48.642Z,86.80
2022-08-27T12:40:25.668Z,86.80
2022-08-27T12:43:13.425Z,86.80
2022-08-27T12:45:46.211Z,86.70
2022-08-27T12:48:13.430Z,86.60
2022-08-27T12:50:40.406Z,86.70
2022-08-27T12:53:12.723Z,86.70
2022-08-27T12:55:42.445Z,87.00
2022-08-27T12:58:21.113Z,87.00
2022-08-27T13:00:58.845Z,87.10
2022-08-27T13:03:32.763Z,87.00
2022-08-27T13:06:00.973Z,86.60
2022-08-27T13:08:29.994Z,86.40
2022-08-27T13:10:57.905Z,86.40
2022-08-27T13:13:25.476Z,86.30
2022-08-27T13:15:55.641Z,86.70
2022-08-27T13:18:23.480Z,86.00
2022-08-27T13:20:52.732Z,86.30
2022-08-27T13:23:24.993Z,86.50
2022-08-27T13:25:56.044Z,86.20
2022-08-27T13:28:24.764Z,86.50
2022-08-27T13:30:52.758Z,87.20
2022-08-27T13:33:24.544Z,87.60
2022-08-27T13:35:51.619Z,87.20
2022-08-27T13:38:19.325Z,87.70
2022-08-27T13:40:51.945Z,87.70
2022-08-27T13:43:19.296Z,87.40
2022-08-27T13:45:48.581Z,87.00
2022-08-27T13:48:17.823Z,86.80
2022-08-27T13:50:49.666Z,86.70
2022-08-27T13:53:39.088Z,86.50
2022-08-27T13:56:05.885Z,86.80
2022-08-27T13:58:34.183Z,86.50
2022-08-27T14:01:23.714Z,86.30
2022-08-27T14:03:57.740Z,86.10
2022-08-27T14:06:31.372Z,86.10
2022-08-27T14:09:17.343Z,86.00
2022-08-27T14:11:44.589Z,86.10
2022-08-27T14:14:11.713Z,86.00
2022-08-27T14:16:39.793Z,85.80
2022-08-27T14:19:06.777Z,85.70
2022-08-27T14:21:33.963Z,85.90
2022-08-27T14:24:00.958Z,85.70
2022-08-27T14:26:27.820Z,85.60
2022-08-27T14:28:55.134Z,85.70
2022-08-27T14:31:22.697Z,85.60
2022-08-27T14:33:49.953Z,86.50
2022-08-27T14:36:16.684Z,86.80
2022-08-27T14:38:44.513Z,86.60
2022-08-27T14:41:11.253Z,86.60
2022-08-27T14:43:38.314Z,86.20
2022-08-27T14:46:06.767Z,85.80
2022-08-27T14:48:34.008Z,86.00
2022-08-27T14:51:03.456Z,85.80
2022-08-27T14:53:30.161Z,85.80
2022-08-27T14:55:59.037Z,86.50
2022-08-27T14:58:26.021Z,85.60
2022-08-27T15:00:55.369Z,85.60
2022-08-27T15:03:25.671Z,85.50
2022-08-27T15:05:54.892Z,85.60
2022-08-27T15:08:27.429Z,85.60
2022-08-27T15:10:56.982Z,85.60
2022-08-27T15:13:24.053Z,85.60
2022-08-27T15:15:52.342Z,85.40
2022-08-27T15:18:19.643Z,85.50
2022-08-27T15:20:46.537Z,85.50
2022-08-27T15:23:14.009Z,85.60
2022-08-27T15:25:41.353Z,85.70
2022-08-27T15:28:08.418Z,85.60
2022-08-27T15:30:37.038Z,86.20
2022-08-27T15:33:04.645Z,85.90
2022-08-27T15:35:31.725Z,85.80
2022-08-27T15:37:58.576Z,85.80
2022-08-27T15:40:26.962Z,85.80
2022-08-27T15:42:56.838Z,84.10
2022-08-27T15:45:25.557Z,85.80
2022-08-27T15:47:54.611Z,85.90
2022-08-27T15:50:21.378Z,85.70
2022-08-27T15:52:49.286Z,85.90
2022-08-27T15:55:22.340Z,85.80
2022-08-27T15:57:49.197Z,85.90
2022-08-27T16:00:17.227Z,85.90
2022-08-27T16:02:44.827Z,86.00
2022-08-27T16:05:12.604Z,86.10
2022-08-27T16:07:39.493Z,86.20
2022-08-27T16:10:07.067Z,86.20
2022-08-27T16:12:33.776Z,86.20
2022-08-27T16:15:01.005Z,86.30
2022-08-27T16:17:27.690Z,86.20
2022-08-27T16:19:54.619Z,85.90
2022-08-27T16:22:21.401Z,85.90
2022-08-27T16:24:48.061Z,86.00
2022-08-27T16:27:14.781Z,85.90
2022-08-27T16:29:41.634Z,85.80
2022-08-27T16:32:11.385Z,85.80
2022-08-27T16:34:39.355Z,85.90
2022-08-27T16:37:06.082Z,86.00
2022-08-27T16:39:36.346Z,86.00
2022-08-27T16:42:05.615Z,86.20
2022-08-27T16:44:32.905Z,85.80
2022-08-27T16:46:59.636Z,85.60
2022-08-27T16:49:45.040Z,85.70
2022-08-27T16:52:11.935Z,85.80
2022-08-27T16:54:38.750Z,85.90
2022-08-27T16:57:05.503Z,86.00
2022-08-27T16:59:32.281Z,85.70
2022-08-27T17:01:59.015Z,85.70
2022-08-27T17:04:31.269Z,85.60
2022-08-27T17:07:01.232Z,85.70
2022-08-27T17:09:28.194Z,85.70
2022-08-27T17:11:56.998Z,85.90
2022-08-27T17:14:24.189Z,85.90
2022-08-27T17:16:54.057Z,85.90
2022-08-27T17:19:22.383Z,85.80
2022-08-27T17:21:50.183Z,85.80
2022-08-27T17:24:17.070Z,85.60
2022-08-27T17:26:43.783Z,85.80
2022-08-27T17:29:11.066Z,84.90
2022-08-27T17:31:38.702Z,85.50
2022-08-27T17:34:06.053Z,85.50
2022-08-27T17:36:33.402Z,85.60
2022-08-27T17:39:00.313Z,85.60
2022-08-27T17:41:34.179Z,85.60
2022-08-27T17:44:10.790Z,85.60
2022-08-27T17:46:37.532Z,85.60
2022-08-27T17:49:04.274Z,85.60
2022-08-27T17:51:30.930Z,85.60
2022-08-27T17:54:01.537Z,85.70
2022-08-27T17:56:29.231Z,85.90
2022-08-27T17:58:56.050Z,85.70
2022-08-27T18:01:28.400Z,85.60
2022-08-27T18:03:55.926Z,85.60
2022-08-27T18:06:22.674Z,85.60
2022-08-27T18:08:49.393Z,85.80
2022-08-27T18:11:16.839Z,85.60
2022-08-27T18:13:44.173Z,85.50
2022-08-27T18:16:10.863Z,85.60
2022-08-27T18:18:38.343Z,85.60
2022-08-27T18:21:07.983Z,85.60
2022-08-27T18:23:36.945Z,85.70
2022-08-27T18:26:04.517Z,85.80
2022-08-27T18:28:31.376Z,85.70
2022-08-27T18:30:58.424Z,85.70
2022-08-27T18:33:30.689Z,85.60
2022-08-27T18:35:57.370Z,85.60
2022-08-27T18:38:24.021Z,85.60
2022-08-27T18:40:51.921Z,85.60
2022-08-27T18:43:20.798Z,85.80
2022-08-27T18:45:47.611Z,85.70
2022-08-27T18:48:18.962Z,85.60
2022-08-27T18:50:47.517Z,85.60
2022-08-27T18:53:14.771Z,85.60
2022-08-27T18:55:41.489Z,85.60
2022-08-27T18:58:08.230Z,85.60
2022-08-27T19:00:35.218Z,85.60
2022-08-27T19:03:01.886Z,85.60
2022-08-27T19:05:29.041Z,85.60
2022-08-27T19:07:58.379Z,85.80
2022-08-27T19:10:25.949Z,85.60
2022-08-27T19:12:52.896Z,85.60
2022-08-27T19:15:19.585Z,85.60
2022-08-27T19:17:49.420Z,85.80
2022-08-27T19:20:18.692Z,85.60
2022-08-27T19:22:45.907Z,85.60
2022-08-27T19:25:12.766Z,85.60
2022-08-27T19:27:39.572Z,85.60
2022-08-27T19:30:06.818Z,85.60
2022-08-27T19:32:33.552Z,85.60
2022-08-27T19:35:00.876Z,85.60
2022-08-27T19:37:29.472Z,85.60
2022-08-27T19:39:56.347Z,85.70
2022-08-27T19:42:23.079Z,85.60
2022-08-27T19:44:49.803Z,85.60
2022-08-27T19:47:17.534Z,85.60
2022-08-27T19:49:49.796Z,85.50
2022-08-27T19:52:16.620Z,85.60
2022-08-27T19:55:09.828Z,85.50
2022-08-27T19:57:30.124Z,85.50
2022-08-27T19:59:56.823Z,85.50
2022-08-27T20:02:23.557Z,85.40
2022-08-27T20:05:14.206Z,85.40
2022-08-27T20:07:36.998Z,85.40
2022-08-27T20:10:08.580Z,85.40
2022-08-27T20:12:36.016Z,85.40
2022-08-27T20:15:02.922Z,85.40
2022-08-27T20:17:29.746Z,85.40
2022-08-27T20:19:57.097Z,85.50
2022-08-27T20:22:23.764Z,85.60
2022-08-27T20:24:50.503Z,85.90
2022-08-27T20:27:17.191Z,85.50
2022-08-27T20:29:44.658Z,86.20
2022-08-27T20:32:13.105Z,85.40
2022-08-27T20:34:39.996Z,85.20
2022-08-27T20:37:06.740Z,85.30
2022-08-27T20:39:33.813Z,85.20
2022-08-27T20:42:00.619Z,85.20
2022-08-27T20:44:27.396Z,85.00
2022-08-27T20:47:00.130Z,85.00
2022-08-27T20:49:28.046Z,84.90
2022-08-27T20:52:02.696Z,84.90
2022-08-27T20:54:32.038Z,84.90
2022-08-27T20:56:58.751Z,84.90
2022-08-27T20:59:44.212Z,84.90
2022-08-27T21:02:12.096Z,84.90
2022-08-27T21:04:40.306Z,84.80
2022-08-27T21:07:07.003Z,84.80
2022-08-27T21:09:34.069Z,84.80
2022-08-27T21:12:01.079Z,84.80
2022-08-27T21:14:27.877Z,84.80
2022-08-27T21:16:54.714Z,84.70
2022-08-27T21:19:21.633Z,84.70
2022-08-27T21:21:48.435Z,84.70
2022-08-27T21:24:15.201Z,84.70
2022-08-27T21:26:41.906Z,84.70
2022-08-27T21:29:08.590Z,84.70
2022-08-27T21:31:35.316Z,84.70
2022-08-27T21:34:02.038Z,84.60
2022-08-27T21:36:28.766Z,84.70
2022-08-27T21:38:55.435Z,84.70
2022-08-27T21:41:22.371Z,84.60
2022-08-27T21:43:49.251Z,84.60
2022-08-27T21:46:16.216Z,84.60
2022-08-27T21:48:42.946Z,84.70
2022-08-27T21:51:10.598Z,84.80
2022-08-27T21:53:37.581Z,84.70
2022-08-27T21:56:04.465Z,84.70
2022-08-27T21:58:31.254Z,84.70
2022-08-27T22:00:58.448Z,84.70
2022-08-27T22:03:25.294Z,84.70
2022-08-27T22:05:52.128Z,84.60
2022-08-27T22:08:20.205Z,84.60
2022-08-27T22:10:48.425Z,84.60
2022-08-27T22:13:15.345Z,84.60
2022-08-27T22:15:42.281Z,84.70
2022-08-27T22:18:09.414Z,84.70
2022-08-27T22:20:36.374Z,84.70
2022-08-27T22:23:04.954Z,84.70
2022-08-27T22:25:31.684Z,84.70
2022-08-27T22:27:58.328Z,84.70
2022-08-27T22:30:25.055Z,84.80
2022-08-27T22:32:52.285Z,84.70
2022-08-27T22:35:20.024Z,84.70
2022-08-27T22:37:47.299Z,84.80
2022-08-27T22:40:19.293Z,84.70
2022-08-27T22:42:46.810Z,84.70
2022-08-27T22:45:13.723Z,84.70
2022-08-27T22:47:40.494Z,84.80
2022-08-27T22:50:07.574Z,84.70
2022-08-27T22:52:35.535Z,84.80
2022-08-27T22:55:02.274Z,84.60
2022-08-27T22:57:29.007Z,84.80
2022-08-27T22:59:55.727Z,84.80
2022-08-27T23:02:22.487Z,84.90
2022-08-27T23:04:56.502Z,84.80
2022-08-27T23:07:24.435Z,84.80
2022-08-27T23:09:51.275Z,84.80
2022-08-27T23:12:19.902Z,84.80
2022-08-27T23:14:46.757Z,84.80
2022-08-27T23:17:16.103Z,84.80
2022-08-27T23:19:43.034Z,84.70
2022-08-27T23:22:09.876Z,84.80
2022-08-27T23:24:59.567Z,84.70
2022-08-27T23:27:28.947Z,84.70
2022-08-27T23:29:56.188Z,84.80
2022-08-27T23:32:23.430Z,84.80
2022-08-27T23:34:50.095Z,84.80
2022-08-27T23:37:17.317Z,84.80
2022-08-27T23:39:44.053Z,85.40
2022-08-27T23:42:10.778Z,84.80
2022-08-27T23:44:38.005Z,84.80
2022-08-27T23:47:04.678Z,84.80
2022-08-27T23:49:32.310Z,84.90
2022-08-27T23:51:58.964Z,84.80
2022-08-27T23:54:25.646Z,84.80
2022-08-27T23:56:52.323Z,84.90
2022-08-27T23:59:18.991Z,84.90
